SAS281 ENGM-ENBR
Flight info
| Callsign | SAS281 |
|---|---|
| Flight time | 0h 44m |
| Altitude | 28000 |
| Route | ATLAP DCT AGEKU DCT PESUR |
| Aircraft | A320/M-SDE3FGHIRWY/LB1 |
Departure
| Time | 2026-05-06 16:46 |
|---|---|
| Airport | Oslo-Gardermoen International Airport (ENGM) |
Arrival
| Time | 2026-05-06 17:30 |
|---|---|
| Airport | Bergen Airport, Flesland (ENBR) |
| Time | Latitude | Longitude | Altitude | Speed | Heading |
|---|---|---|---|---|---|
| 2026-05-06 16:26 | 60.19534 | 11.09653 | 690 ft | 0 kts | 195° |
| 2026-05-06 16:37 | 60.19538 | 11.09656 | 690 ft | 2 kts | 195° |
| 2026-05-06 16:37 | 60.19552 | 11.09663 | 690 ft | 2 kts | 195° |
| 2026-05-06 16:37 | 60.19567 | 11.09671 | 690 ft | 2 kts | 195° |
| 2026-05-06 16:38 | 60.19574 | 11.09675 | 690 ft | 0 kts | 195° |
| 2026-05-06 16:40 | 60.19570 | 11.09675 | 690 ft | 0 kts | 179° |
| 2026-05-06 16:40 | 60.19567 | 11.09677 | 690 ft | 0 kts | 156° |
| 2026-05-06 16:41 | 60.19564 | 11.09684 | 690 ft | 0 kts | 123° |
| 2026-05-06 16:41 | 60.19566 | 11.09713 | 690 ft | 4 kts | 53° |
| 2026-05-06 16:41 | 60.19610 | 11.09724 | 690 ft | 9 kts | 338° |
| 2026-05-06 16:41 | 60.19654 | 11.09589 | 690 ft | 14 kts | 286° |
| 2026-05-06 16:42 | 60.19684 | 11.09378 | 690 ft | 15 kts | 287° |
| 2026-05-06 16:42 | 60.19720 | 11.09118 | 690 ft | 23 kts | 286° |
| 2026-05-06 16:42 | 60.19766 | 11.08811 | 690 ft | 16 kts | 286° |
| 2026-05-06 16:42 | 60.19835 | 11.08700 | 690 ft | 16 kts | 10° |
| 2026-05-06 16:43 | 60.19970 | 11.08783 | 690 ft | 24 kts | 16° |
| 2026-05-06 16:43 | 60.20146 | 11.08884 | 690 ft | 26 kts | 16° |
| 2026-05-06 16:43 | 60.20317 | 11.08981 | 690 ft | 24 kts | 14° |
| 2026-05-06 16:43 | 60.20478 | 11.09077 | 690 ft | 23 kts | 16° |
| 2026-05-06 16:44 | 60.20612 | 11.09149 | 690 ft | 12 kts | 355° |
| 2026-05-06 16:44 | 60.20650 | 11.09027 | 690 ft | 11 kts | 287° |
| 2026-05-06 16:44 | 60.20674 | 11.08876 | 690 ft | 11 kts | 286° |
| 2026-05-06 16:44 | 60.20696 | 11.08725 | 690 ft | 11 kts | 285° |
| 2026-05-06 16:45 | 60.20661 | 11.08620 | 690 ft | 10 kts | 193° |
| 2026-05-06 16:45 | 60.20523 | 11.08540 | 690 ft | 48 kts | 196° |
| 2026-05-06 16:45 | 60.19935 | 11.08202 | 690 ft | 123 kts | 196° |
| 2026-05-06 16:45 | 60.18940 | 11.07628 | 826 ft | 167 kts | 197° |
| 2026-05-06 16:46 | 60.17818 | 11.06930 | 1503 ft | 171 kts | 198° |
| 2026-05-06 16:46 | 60.16719 | 11.06142 | 2298 ft | 169 kts | 213° |
| 2026-05-06 16:46 | 60.15972 | 11.04553 | 2960 ft | 158 kts | 245° |
| 2026-05-06 16:46 | 60.15564 | 11.02583 | 3529 ft | 157 kts | 249° |
| 2026-05-06 16:47 | 60.15183 | 11.00522 | 4045 ft | 161 kts | 249° |
| 2026-05-06 16:47 | 60.14786 | 10.98473 | 4378 ft | 176 kts | 247° |
| 2026-05-06 16:47 | 60.14314 | 10.95986 | 4751 ft | 194 kts | 252° |
| 2026-05-06 16:47 | 60.14061 | 10.93260 | 5093 ft | 213 kts | 266° |
| 2026-05-06 16:48 | 60.14106 | 10.90088 | 5445 ft | 237 kts | 272° |
| 2026-05-06 16:48 | 60.14249 | 10.86664 | 5916 ft | 255 kts | 273° |
| 2026-05-06 16:48 | 60.14397 | 10.83056 | 6512 ft | 267 kts | 273° |
| 2026-05-06 16:48 | 60.14542 | 10.79371 | 7344 ft | 269 kts | 272° |
| 2026-05-06 16:49 | 60.14675 | 10.75651 | 8142 ft | 272 kts | 273° |
| 2026-05-06 16:49 | 60.14805 | 10.71869 | 8940 ft | 275 kts | 272° |
| 2026-05-06 16:49 | 60.14933 | 10.68046 | 9678 ft | 279 kts | 272° |
| 2026-05-06 16:49 | 60.15058 | 10.64125 | 10436 ft | 281 kts | 272° |
| 2026-05-06 16:50 | 60.15181 | 10.60157 | 10828 ft | 296 kts | 272° |
| 2026-05-06 16:50 | 60.15309 | 10.55908 | 11147 ft | 313 kts | 272° |
| 2026-05-06 16:50 | 60.15440 | 10.51546 | 11699 ft | 320 kts | 272° |
| 2026-05-06 16:50 | 60.15575 | 10.47120 | 12435 ft | 320 kts | 272° |
| 2026-05-06 16:51 | 60.15705 | 10.42733 | 13170 ft | 319 kts | 272° |
| 2026-05-06 16:51 | 60.15834 | 10.38340 | 13892 ft | 318 kts | 272° |
| 2026-05-06 16:51 | 60.15961 | 10.33893 | 14619 ft | 317 kts | 271° |
| 2026-05-06 16:51 | 60.16085 | 10.29491 | 15329 ft | 316 kts | 271° |
| 2026-05-06 16:52 | 60.16207 | 10.25118 | 16022 ft | 315 kts | 270° |
| 2026-05-06 16:52 | 60.16326 | 10.20816 | 16677 ft | 315 kts | 270° |
| 2026-05-06 16:52 | 60.16439 | 10.16638 | 17254 ft | 315 kts | 270° |
| 2026-05-06 16:52 | 60.16557 | 10.12191 | 17771 ft | 318 kts | 270° |
| 2026-05-06 16:53 | 60.16675 | 10.07760 | 18360 ft | 319 kts | 270° |
| 2026-05-06 16:53 | 60.16790 | 10.03314 | 18930 ft | 319 kts | 270° |
| 2026-05-06 16:53 | 60.16903 | 9.98896 | 19456 ft | 321 kts | 270° |
| 2026-05-06 16:53 | 60.17018 | 9.94359 | 19971 ft | 322 kts | 270° |
| 2026-05-06 16:54 | 60.17130 | 9.89899 | 20466 ft | 324 kts | 270° |
| 2026-05-06 16:54 | 60.17242 | 9.85372 | 20957 ft | 325 kts | 270° |
| 2026-05-06 16:54 | 60.17353 | 9.80828 | 21426 ft | 327 kts | 270° |
| 2026-05-06 16:54 | 60.17463 | 9.76246 | 21885 ft | 328 kts | 270° |
| 2026-05-06 16:55 | 60.17572 | 9.71648 | 22310 ft | 331 kts | 270° |
| 2026-05-06 16:55 | 60.17680 | 9.67040 | 22731 ft | 332 kts | 270° |
| 2026-05-06 16:55 | 60.17788 | 9.62388 | 23140 ft | 334 kts | 270° |
| 2026-05-06 16:55 | 60.17894 | 9.57714 | 23534 ft | 336 kts | 270° |
| 2026-05-06 16:56 | 60.18000 | 9.52970 | 23920 ft | 339 kts | 270° |
| 2026-05-06 16:56 | 60.18105 | 9.48225 | 24295 ft | 341 kts | 270° |
| 2026-05-06 16:56 | 60.18209 | 9.43462 | 24638 ft | 343 kts | 270° |
| 2026-05-06 16:56 | 60.18310 | 9.38695 | 25061 ft | 343 kts | 270° |
| 2026-05-06 16:57 | 60.18411 | 9.33930 | 25539 ft | 342 kts | 269° |
| 2026-05-06 16:57 | 60.18510 | 9.29118 | 26024 ft | 341 kts | 268° |
| 2026-05-06 16:57 | 60.18605 | 9.24393 | 26456 ft | 340 kts | 268° |
| 2026-05-06 16:57 | 60.18698 | 9.19630 | 26810 ft | 342 kts | 268° |
| 2026-05-06 16:58 | 60.18789 | 9.14891 | 27139 ft | 344 kts | 268° |
| 2026-05-06 16:58 | 60.18880 | 9.10072 | 27482 ft | 346 kts | 268° |
| 2026-05-06 16:58 | 60.18971 | 9.05183 | 27838 ft | 347 kts | 268° |
| 2026-05-06 16:58 | 60.19059 | 9.00330 | 27941 ft | 349 kts | 268° |
| 2026-05-06 16:59 | 60.19145 | 8.95501 | 27944 ft | 349 kts | 268° |
| 2026-05-06 16:59 | 60.19230 | 8.90616 | 27947 ft | 349 kts | 268° |
| 2026-05-06 16:59 | 60.19313 | 8.85726 | 27950 ft | 358 kts | 268° |
| 2026-05-06 16:59 | 60.19396 | 8.80615 | 27950 ft | 365 kts | 268° |
| 2026-05-06 17:00 | 60.19479 | 8.75524 | 27949 ft | 367 kts | 268° |
| 2026-05-06 17:00 | 60.19562 | 8.70416 | 27949 ft | 368 kts | 268° |
| 2026-05-06 17:00 | 60.19643 | 8.65273 | 27949 ft | 367 kts | 268° |
| 2026-05-06 17:00 | 60.19723 | 8.60142 | 27949 ft | 367 kts | 268° |
| 2026-05-06 17:01 | 60.19799 | 8.55037 | 27949 ft | 367 kts | 268° |
| 2026-05-06 17:01 | 60.19874 | 8.49883 | 27949 ft | 367 kts | 268° |
| 2026-05-06 17:01 | 60.19946 | 8.44739 | 27949 ft | 367 kts | 268° |
| 2026-05-06 17:01 | 60.20015 | 8.39620 | 27949 ft | 366 kts | 268° |
| 2026-05-06 17:02 | 60.20082 | 8.34507 | 27949 ft | 365 kts | 268° |
| 2026-05-06 17:02 | 60.20148 | 8.29435 | 27949 ft | 364 kts | 268° |
| 2026-05-06 17:02 | 60.20276 | 8.24342 | 27949 ft | 364 kts | 269° |
| 2026-05-06 17:02 | 60.20437 | 8.19306 | 27948 ft | 364 kts | 269° |
| 2026-05-06 17:03 | 60.20599 | 8.14231 | 27948 ft | 364 kts | 269° |
| 2026-05-06 17:03 | 60.20756 | 8.09183 | 27948 ft | 363 kts | 269° |
| 2026-05-06 17:03 | 60.20901 | 8.04383 | 27950 ft | 363 kts | 269° |
| 2026-05-06 17:03 | 60.21053 | 7.99238 | 27952 ft | 363 kts | 269° |
| 2026-05-06 17:04 | 60.21200 | 7.94134 | 27956 ft | 362 kts | 269° |
| 2026-05-06 17:04 | 60.21344 | 7.89084 | 27960 ft | 362 kts | 269° |
| 2026-05-06 17:04 | 60.21485 | 7.84002 | 27964 ft | 362 kts | 269° |
| 2026-05-06 17:04 | 60.21612 | 7.79363 | 27967 ft | 362 kts | 269° |
| 2026-05-06 17:05 | 60.21755 | 7.74076 | 27969 ft | 363 kts | 269° |
| 2026-05-06 17:05 | 60.21890 | 7.68987 | 27971 ft | 363 kts | 269° |
| 2026-05-06 17:05 | 60.22022 | 7.63932 | 27622 ft | 363 kts | 269° |
| 2026-05-06 17:05 | 60.22152 | 7.58883 | 27095 ft | 359 kts | 269° |
| 2026-05-06 17:06 | 60.22278 | 7.53916 | 26533 ft | 355 kts | 270° |
| 2026-05-06 17:06 | 60.22401 | 7.49005 | 25956 ft | 352 kts | 270° |
| 2026-05-06 17:06 | 60.22521 | 7.44136 | 25376 ft | 349 kts | 270° |
| 2026-05-06 17:06 | 60.22639 | 7.39264 | 24801 ft | 346 kts | 270° |
| 2026-05-06 17:07 | 60.22751 | 7.34525 | 24238 ft | 343 kts | 269° |
| 2026-05-06 17:07 | 60.22829 | 7.31161 | 23858 ft | 341 kts | 270° |
| 2026-05-06 17:07 | 60.22939 | 7.26495 | 23318 ft | 338 kts | 270° |
| 2026-05-06 17:07 | 60.23043 | 7.21980 | 22775 ft | 336 kts | 270° |
| 2026-05-06 17:08 | 60.23145 | 7.17448 | 22241 ft | 334 kts | 270° |
| 2026-05-06 17:08 | 60.23252 | 7.12645 | 21670 ft | 332 kts | 270° |
| 2026-05-06 17:08 | 60.23353 | 7.08030 | 21117 ft | 330 kts | 270° |
| 2026-05-06 17:08 | 60.23452 | 7.03462 | 20588 ft | 328 kts | 270° |
| 2026-05-06 17:09 | 60.23548 | 6.98888 | 20060 ft | 326 kts | 270° |
| 2026-05-06 17:09 | 60.23643 | 6.94319 | 19546 ft | 324 kts | 270° |
| 2026-05-06 17:09 | 60.23735 | 6.89817 | 19041 ft | 322 kts | 270° |
| 2026-05-06 17:09 | 60.23825 | 6.85345 | 18548 ft | 320 kts | 270° |
| 2026-05-06 17:10 | 60.23912 | 6.80938 | 18059 ft | 317 kts | 270° |
| 2026-05-06 17:10 | 60.23997 | 6.76520 | 17554 ft | 316 kts | 270° |
| 2026-05-06 17:10 | 60.24079 | 6.72130 | 17052 ft | 314 kts | 271° |
| 2026-05-06 17:10 | 60.24161 | 6.67706 | 16530 ft | 313 kts | 271° |
| 2026-05-06 17:11 | 60.24257 | 6.63353 | 16019 ft | 313 kts | 274° |
| 2026-05-06 17:11 | 60.24609 | 6.59039 | 15499 ft | 313 kts | 282° |
| 2026-05-06 17:11 | 60.25291 | 6.54874 | 14991 ft | 315 kts | 290° |
| 2026-05-06 17:11 | 60.26207 | 6.50901 | 14502 ft | 314 kts | 293° |
| 2026-05-06 17:12 | 60.27165 | 6.46967 | 14010 ft | 313 kts | 294° |
| 2026-05-06 17:12 | 60.28128 | 6.43037 | 13522 ft | 312 kts | 295° |
| 2026-05-06 17:12 | 60.29088 | 6.39114 | 13035 ft | 312 kts | 295° |
| 2026-05-06 17:12 | 60.30035 | 6.35233 | 12569 ft | 310 kts | 295° |
| 2026-05-06 17:13 | 60.30969 | 6.31392 | 12123 ft | 309 kts | 295° |
| 2026-05-06 17:13 | 60.31919 | 6.27478 | 11652 ft | 308 kts | 295° |
| 2026-05-06 17:13 | 60.32854 | 6.23618 | 11171 ft | 308 kts | 295° |
| 2026-05-06 17:13 | 60.33792 | 6.19744 | 10863 ft | 302 kts | 295° |
| 2026-05-06 17:14 | 60.34690 | 6.16028 | 10690 ft | 293 kts | 295° |
| 2026-05-06 17:14 | 60.35572 | 6.12373 | 10519 ft | 284 kts | 295° |
| 2026-05-06 17:14 | 60.36425 | 6.08832 | 10346 ft | 276 kts | 295° |
| 2026-05-06 17:14 | 60.37233 | 6.05475 | 10185 ft | 268 kts | 295° |
| 2026-05-06 17:15 | 60.38032 | 6.02143 | 9913 ft | 265 kts | 296° |
| 2026-05-06 17:15 | 60.38834 | 5.98794 | 9550 ft | 265 kts | 296° |
| 2026-05-06 17:15 | 60.39626 | 5.95469 | 9238 ft | 264 kts | 296° |
| 2026-05-06 17:15 | 60.40423 | 5.92124 | 8785 ft | 268 kts | 296° |
| 2026-05-06 17:16 | 60.41219 | 5.88786 | 8464 ft | 267 kts | 296° |
| 2026-05-06 17:16 | 60.42019 | 5.85425 | 8148 ft | 265 kts | 296° |
| 2026-05-06 17:16 | 60.42816 | 5.82076 | 7898 ft | 260 kts | 296° |
| 2026-05-06 17:16 | 60.43586 | 5.78815 | 7726 ft | 253 kts | 296° |
| 2026-05-06 17:17 | 60.44335 | 5.75645 | 7594 ft | 244 kts | 296° |
| 2026-05-06 17:17 | 60.45059 | 5.72583 | 7405 ft | 238 kts | 296° |
| 2026-05-06 17:17 | 60.45763 | 5.69602 | 7216 ft | 232 kts | 295° |
| 2026-05-06 17:17 | 60.46448 | 5.66693 | 6957 ft | 230 kts | 296° |
| 2026-05-06 17:18 | 60.47163 | 5.63807 | 6678 ft | 229 kts | 303° |
| 2026-05-06 17:18 | 60.48255 | 5.61758 | 6328 ft | 232 kts | 334° |
| 2026-05-06 17:18 | 60.49809 | 5.61086 | 6051 ft | 232 kts | 359° |
| 2026-05-06 17:18 | 60.51403 | 5.61179 | 5993 ft | 233 kts | 0° |
| 2026-05-06 17:19 | 60.53022 | 5.61196 | 5986 ft | 232 kts | 354° |
| 2026-05-06 17:19 | 60.54539 | 5.60640 | 5989 ft | 217 kts | 343° |
| 2026-05-06 17:19 | 60.55938 | 5.59720 | 6000 ft | 211 kts | 339° |
| 2026-05-06 17:19 | 60.57312 | 5.58725 | 5975 ft | 211 kts | 339° |
| 2026-05-06 17:20 | 60.58648 | 5.57610 | 5923 ft | 210 kts | 331° |
| 2026-05-06 17:20 | 60.59829 | 5.56112 | 5830 ft | 209 kts | 322° |
| 2026-05-06 17:20 | 60.60944 | 5.54305 | 5655 ft | 209 kts | 319° |
| 2026-05-06 17:20 | 60.62049 | 5.52422 | 5529 ft | 208 kts | 319° |
| 2026-05-06 17:21 | 60.63093 | 5.50387 | 5393 ft | 207 kts | 302° |
| 2026-05-06 17:21 | 60.63447 | 5.47645 | 5249 ft | 206 kts | 264° |
| 2026-05-06 17:21 | 60.62984 | 5.45088 | 5135 ft | 207 kts | 233° |
| 2026-05-06 17:21 | 60.61968 | 5.42988 | 5031 ft | 208 kts | 223° |
| 2026-05-06 17:22 | 60.60883 | 5.41038 | 4906 ft | 207 kts | 223° |
| 2026-05-06 17:22 | 60.59816 | 5.39113 | 4783 ft | 206 kts | 224° |
| 2026-05-06 17:22 | 60.58735 | 5.37127 | 4663 ft | 206 kts | 224° |
| 2026-05-06 17:22 | 60.57684 | 5.35166 | 4540 ft | 206 kts | 224° |
| 2026-05-06 17:23 | 60.56643 | 5.33204 | 4415 ft | 204 kts | 223° |
| 2026-05-06 17:23 | 60.55625 | 5.31283 | 4336 ft | 193 kts | 223° |
| 2026-05-06 17:23 | 60.54673 | 5.29493 | 4276 ft | 185 kts | 224° |
| 2026-05-06 17:23 | 60.53737 | 5.27727 | 4159 ft | 184 kts | 224° |
| 2026-05-06 17:24 | 60.52786 | 5.25937 | 4060 ft | 184 kts | 224° |
| 2026-05-06 17:24 | 60.51860 | 5.24183 | 3897 ft | 183 kts | 224° |
| 2026-05-06 17:24 | 60.50922 | 5.22408 | 3793 ft | 183 kts | 224° |
| 2026-05-06 17:24 | 60.50003 | 5.20686 | 3664 ft | 182 kts | 224° |
| 2026-05-06 17:25 | 60.49078 | 5.18939 | 3563 ft | 181 kts | 224° |
| 2026-05-06 17:25 | 60.48152 | 5.17206 | 3431 ft | 182 kts | 224° |
| 2026-05-06 17:25 | 60.47029 | 5.16010 | 3260 ft | 185 kts | 191° |
| 2026-05-06 17:25 | 60.45742 | 5.16099 | 3212 ft | 186 kts | 173° |
| 2026-05-06 17:26 | 60.44477 | 5.16606 | 2997 ft | 188 kts | 169° |
| 2026-05-06 17:26 | 60.43195 | 5.17151 | 2760 ft | 186 kts | 171° |
| 2026-05-06 17:26 | 60.41958 | 5.17599 | 2503 ft | 178 kts | 172° |
| 2026-05-06 17:26 | 60.40744 | 5.18011 | 2245 ft | 176 kts | 171° |
| 2026-05-06 17:27 | 60.39541 | 5.18406 | 1957 ft | 171 kts | 171° |
| 2026-05-06 17:27 | 60.38408 | 5.18784 | 1741 ft | 162 kts | 171° |
| 2026-05-06 17:27 | 60.37314 | 5.19150 | 1552 ft | 159 kts | 171° |
| 2026-05-06 17:27 | 60.36227 | 5.19508 | 1352 ft | 151 kts | 172° |
| 2026-05-06 17:28 | 60.35235 | 5.19833 | 1136 ft | 139 kts | 172° |
| 2026-05-06 17:28 | 60.34307 | 5.20126 | 959 ft | 133 kts | 170° |
| 2026-05-06 17:28 | 60.33395 | 5.20439 | 776 ft | 132 kts | 171° |
| 2026-05-06 17:28 | 60.32489 | 5.20749 | 622 ft | 132 kts | 172° |
| 2026-05-06 17:29 | 60.31578 | 5.21048 | 439 ft | 132 kts | 169° |
| 2026-05-06 17:29 | 60.30687 | 5.21359 | 259 ft | 130 kts | 169° |
| 2026-05-06 17:29 | 60.29830 | 5.21651 | 148 ft | 111 kts | 171° |
| 2026-05-06 17:29 | 60.29239 | 5.21852 | 158 ft | 61 kts | 171° |
| 2026-05-06 17:30 | 60.28973 | 5.21944 | 162 ft | 26 kts | 170° |
| 2026-05-06 17:30 | 60.28801 | 5.22002 | 161 ft | 22 kts | 169° |
| 2026-05-06 17:30 | 60.28677 | 5.22061 | 159 ft | 13 kts | 146° |
| 2026-05-06 17:30 | 60.28665 | 5.22215 | 163 ft | 7 kts | 81° |
| 2026-05-06 17:31 | 60.28670 | 5.22264 | 164 ft | 0 kts | 78° |
| 2026-05-06 17:31 | 60.28670 | 5.22266 | 164 ft | 0 kts | 78° |
| 2026-05-06 17:31 | 60.28676 | 5.22329 | 165 ft | 10 kts | 78° |
| 2026-05-06 17:31 | 60.28696 | 5.22462 | 168 ft | 9 kts | 59° |
| 2026-05-06 17:32 | 60.28718 | 5.22565 | 171 ft | 7 kts | 79° |
| 2026-05-06 17:32 | 60.28727 | 5.22675 | 172 ft | 9 kts | 82° |
| 2026-05-06 17:32 | 60.28737 | 5.22823 | 173 ft | 11 kts | 82° |
| 2026-05-06 17:32 | 60.28743 | 5.22892 | 173 ft | 0 kts | 81° |
| 2026-05-06 17:33 | 60.28743 | 5.22903 | 173 ft | 0 kts | 79° |